createdAt,value
2022-08-25T00:00:21.985Z,118.45
2022-08-25T00:03:09.190Z,118.40
2022-08-25T00:05:56.255Z,115.80
2022-08-25T00:08:43.752Z,116.10
2022-08-25T00:11:32.770Z,111.28
2022-08-25T00:14:30.030Z,116.53
2022-08-25T00:17:17.153Z,114.47
2022-08-25T00:20:06.093Z,112.55
2022-08-25T00:22:53.048Z,111.00
2022-08-25T00:25:40.072Z,112.80
2022-08-25T00:28:27.156Z,113.82
2022-08-25T00:31:18.314Z,113.85
2022-08-25T00:34:11.652Z,110.22
2022-08-25T00:36:58.671Z,108.85
2022-08-25T00:39:46.916Z,113.80
2022-08-25T00:42:33.973Z,112.18
2022-08-25T00:45:22.125Z,112.22
2022-08-25T00:48:09.539Z,112.50
2022-08-25T00:50:56.560Z,111.95
2022-08-25T00:53:44.491Z,112.85
2022-08-25T00:56:32.128Z,109.45
2022-08-25T00:59:21.425Z,109.25
2022-08-25T01:02:10.108Z,110.20
2022-08-25T01:04:58.393Z,110.72
2022-08-25T01:07:46.097Z,111.57
2022-08-25T01:10:38.633Z,110.15
2022-08-25T01:13:35.438Z,108.05
2022-08-25T01:16:23.348Z,108.75
2022-08-25T01:19:15.213Z,108.20
2022-08-25T01:22:02.589Z,108.43
2022-08-25T01:25:07.792Z,108.10
2022-08-25T01:27:55.148Z,106.38
2022-08-25T01:30:42.872Z,108.57
2022-08-25T01:33:29.943Z,108.03
2022-08-25T01:36:21.008Z,110.32
2022-08-25T01:39:08.153Z,107.38
2022-08-25T01:42:19.657Z,110.13
2022-08-25T01:45:07.279Z,109.05
2022-08-25T01:47:54.356Z,108.47
2022-08-25T01:50:43.976Z,108.38
2022-08-25T01:53:33.243Z,108.85
2022-08-25T01:56:20.587Z,110.38
2022-08-25T01:59:07.909Z,109.90
2022-08-25T02:01:59.871Z,110.90
2022-08-25T02:04:47.805Z,110.85
2022-08-25T02:07:36.069Z,108.72
2022-08-25T02:10:24.099Z,110.22
2022-08-25T02:13:11.059Z,110.55
2022-08-25T02:16:00.283Z,108.20
2022-08-25T02:18:47.972Z,109.80
2022-08-25T02:21:35.424Z,108.93
2022-08-25T02:24:22.775Z,110.20
2022-08-25T02:27:10.701Z,108.30
2022-08-25T02:29:58.170Z,109.13
2022-08-25T02:32:45.176Z,109.10
2022-08-25T02:35:32.520Z,107.97
2022-08-25T02:38:19.515Z,106.60
2022-08-25T02:41:13.299Z,107.60
2022-08-25T02:44:01.415Z,108.37
2022-08-25T02:46:48.507Z,108.15
2022-08-25T02:49:35.629Z,108.13
2022-08-25T02:52:22.569Z,105.50
2022-08-25T02:55:14.299Z,106.65
2022-08-25T02:58:01.624Z,107.18
2022-08-25T03:00:49.500Z,106.25
2022-08-25T03:03:39.416Z,107.47
2022-08-25T03:06:28.058Z,102.38
2022-08-25T03:09:15.809Z,105.80
2022-08-25T03:12:03.031Z,104.60
2022-08-25T03:14:50.043Z,104.57
2022-08-25T03:17:38.388Z,102.57
2022-08-25T03:20:26.146Z,102.70
2022-08-25T03:23:13.119Z,102.32
2022-08-25T03:26:18.995Z,104.80
2022-08-25T03:29:06.569Z,102.57
2022-08-25T03:31:55.141Z,105.55
2022-08-25T03:34:42.430Z,101.35
2022-08-25T03:37:29.396Z,107.65
2022-08-25T03:40:17.723Z,103.85
2022-08-25T03:43:04.936Z,104.78
2022-08-25T03:45:52.065Z,102.43
2022-08-25T03:48:39.063Z,103.82
2022-08-25T03:51:29.653Z,104.78
2022-08-25T03:54:19.473Z,104.30
2022-08-25T03:57:06.665Z,107.25
2022-08-25T03:59:53.652Z,106.72
2022-08-25T04:02:41.817Z,104.95
2022-08-25T04:05:28.884Z,105.32
2022-08-25T04:08:16.404Z,102.57
2022-08-25T04:11:15.002Z,106.15
2022-08-25T04:14:02.730Z,102.88
2022-08-25T04:16:50.286Z,103.32
2022-08-25T04:19:38.308Z,106.13
2022-08-25T04:22:25.402Z,102.68
2022-08-25T04:25:16.136Z,102.20
2022-08-25T04:28:03.398Z,105.97
2022-08-25T04:30:52.129Z,104.63
2022-08-25T04:33:39.298Z,104.22
2022-08-25T04:36:26.403Z,106.13
2022-08-25T04:39:13.800Z,104.35
2022-08-25T04:42:01.373Z,104.35
2022-08-25T04:44:48.815Z,105.60
2022-08-25T04:47:40.036Z,103.75
2022-08-25T04:50:27.034Z,102.57
2022-08-25T04:53:14.704Z,105.28
2022-08-25T04:56:03.872Z,101.38
2022-08-25T04:58:51.866Z,102.95
2022-08-25T05:01:40.053Z,104.43
2022-08-25T05:04:28.483Z,103.38
2022-08-25T05:07:15.950Z,105.28
2022-08-25T05:10:02.927Z,105.32
2022-08-25T05:12:50.002Z,108.07
2022-08-25T05:15:51.928Z,107.07
2022-08-25T05:18:39.257Z,104.32
2022-08-25T05:21:28.993Z,112.88
2022-08-25T05:24:16.004Z,113.95
2022-08-25T05:27:04.059Z,117.95
2022-08-25T05:29:51.146Z,120.38
2022-08-25T05:32:38.635Z,121.28
2022-08-25T05:35:25.713Z,121.18
2022-08-25T05:38:15.359Z,122.82
2022-08-25T05:41:05.828Z,127.60
2022-08-25T05:43:52.862Z,122.78
2022-08-25T05:46:40.024Z,123.97
2022-08-25T05:49:27.502Z,127.22
2022-08-25T05:52:18.155Z,124.50
2022-08-25T05:55:08.115Z,127.78
2022-08-25T05:57:55.228Z,129.27
2022-08-25T06:00:42.497Z,135.02
2022-08-25T06:03:29.864Z,141.45
2022-08-25T06:06:17.193Z,145.73
2022-08-25T06:09:05.282Z,158.60
2022-08-25T06:11:55.240Z,174.57
2022-08-25T06:14:42.528Z,185.68
2022-08-25T06:17:29.628Z,199.23
2022-08-25T06:20:22.194Z,210.32
2022-08-25T06:23:13.344Z,211.57
2022-08-25T06:26:00.483Z,223.68
2022-08-25T06:28:47.440Z,220.05
2022-08-25T06:31:34.431Z,224.10
2022-08-25T06:34:23.799Z,215.95
2022-08-25T06:37:11.245Z,212.60
2022-08-25T06:39:58.617Z,208.52
2022-08-25T06:42:49.616Z,202.55
2022-08-25T06:45:36.735Z,198.10
2022-08-25T06:48:24.075Z,196.90
2022-08-25T06:51:14.396Z,193.93
2022-08-25T06:54:01.905Z,199.23
2022-08-25T06:56:49.605Z,200.77
2022-08-25T06:59:38.171Z,207.20
2022-08-25T07:02:28.723Z,204.00
2022-08-25T07:05:27.283Z,203.10
2022-08-25T07:08:21.284Z,200.35
2022-08-25T07:11:15.971Z,199.82
2022-08-25T07:14:06.403Z,192.38
2022-08-25T07:16:53.452Z,193.15
2022-08-25T07:19:40.956Z,188.77
2022-08-25T07:22:28.189Z,198.13
2022-08-25T07:25:15.417Z,212.13
2022-08-25T07:28:05.079Z,213.77
2022-08-25T07:30:52.400Z,218.68
2022-08-25T07:33:59.503Z,226.90
2022-08-25T07:36:46.946Z,222.75
2022-08-25T07:39:34.630Z,225.50
2022-08-25T07:42:21.917Z,223.00
2022-08-25T07:45:11.026Z,217.60
2022-08-25T07:48:00.535Z,214.48
2022-08-25T07:50:49.504Z,212.05
2022-08-25T07:53:36.619Z,205.85
2022-08-25T07:56:25.193Z,214.05
2022-08-25T07:59:12.556Z,210.43
2022-08-25T08:01:59.703Z,211.07
2022-08-25T08:04:49.773Z,210.35
2022-08-25T08:07:43.054Z,219.23
2022-08-25T08:10:53.863Z,225.07
2022-08-25T08:13:41.287Z,235.70
2022-08-25T08:16:30.098Z,234.23
2022-08-25T08:19:17.835Z,233.30
2022-08-25T08:22:11.679Z,237.32
2022-08-25T08:24:58.764Z,246.73
2022-08-25T08:27:46.280Z,251.20
2022-08-25T08:30:33.517Z,247.13
2022-08-25T08:33:23.129Z,251.82
2022-08-25T08:36:12.454Z,253.05
2022-08-25T08:39:00.372Z,249.40
2022-08-25T08:42:18.749Z,255.60
2022-08-25T08:45:27.340Z,245.57
2022-08-25T08:48:35.386Z,245.23
2022-08-25T08:51:33.429Z,251.55
2022-08-25T08:54:26.462Z,243.68
2022-08-25T08:57:19.633Z,258.30
2022-08-25T09:00:08.722Z,255.65
2022-08-25T09:03:03.151Z,259.15
2022-08-25T09:05:56.404Z,258.60
2022-08-25T09:08:44.933Z,259.13
2022-08-25T09:11:52.821Z,254.88
2022-08-25T09:14:55.536Z,248.65
2022-08-25T09:18:08.453Z,248.45
2022-08-25T09:21:36.077Z,248.88
2022-08-25T09:24:59.953Z,247.43
2022-08-25T09:27:53.943Z,247.65
2022-08-25T09:30:50.892Z,247.55
2022-08-25T09:33:37.896Z,244.07
2022-08-25T09:36:25.112Z,246.68
2022-08-25T09:39:12.447Z,236.85
2022-08-25T09:42:00.498Z,239.27
2022-08-25T09:44:48.892Z,245.20
2022-08-25T09:47:43.149Z,245.32
2022-08-25T09:53:22.822Z,241.40
2022-08-25T09:56:10.491Z,241.60
2022-08-25T09:59:30.936Z,249.88
2022-08-25T10:02:26.415Z,245.57
2022-08-25T10:05:23.412Z,245.15
2022-08-25T10:08:14.753Z,243.63
2022-08-25T10:11:09.059Z,252.55
2022-08-25T10:14:24.959Z,267.00
2022-08-25T10:17:17.077Z,259.13
2022-08-25T10:20:10.083Z,248.93
2022-08-25T10:23:12.248Z,252.07
2022-08-25T10:26:05.559Z,257.08
2022-08-25T10:29:06.246Z,260.77
2022-08-25T10:31:59.501Z,260.48
2022-08-25T10:34:54.720Z,266.08
2022-08-25T10:38:11.123Z,264.52
2022-08-25T10:41:10.869Z,267.30
2022-08-25T10:44:51.586Z,263.77
2022-08-25T10:47:51.096Z,255.50
2022-08-25T10:50:49.021Z,265.83
2022-08-25T10:53:51.499Z,269.02
2022-08-25T10:56:46.014Z,265.80
2022-08-25T10:59:52.188Z,264.25
2022-08-25T11:02:52.426Z,261.38
2022-08-25T11:05:43.006Z,261.10
2022-08-25T11:08:38.353Z,264.08
2022-08-25T11:11:43.322Z,265.67
2022-08-25T11:14:47.848Z,262.80
2022-08-25T11:18:03.163Z,267.08
2022-08-25T11:21:12.035Z,263.88
2022-08-25T11:24:09.288Z,274.60
2022-08-25T11:26:57.460Z,279.00
2022-08-25T11:29:52.098Z,280.85
2022-08-25T11:32:40.769Z,282.67
2022-08-25T11:35:33.705Z,279.27
2022-08-25T11:38:47.968Z,277.00
2022-08-25T11:41:47.059Z,273.90
2022-08-25T11:44:53.750Z,270.25
2022-08-25T11:47:55.265Z,269.80
2022-08-25T11:51:06.682Z,270.23
2022-08-25T11:54:25.412Z,272.23
2022-08-25T11:57:13.649Z,271.85
2022-08-25T12:00:13.677Z,269.50
2022-08-25T12:03:32.727Z,268.27
2022-08-25T12:06:30.476Z,265.77
2022-08-25T12:09:20.311Z,266.33
2022-08-25T12:12:32.396Z,273.70
2022-08-25T12:15:24.392Z,275.90
2022-08-25T12:18:23.120Z,262.92
2022-08-25T12:21:14.552Z,274.48
2022-08-25T12:24:08.384Z,267.50
2022-08-25T12:27:00.757Z,256.02
2022-08-25T12:30:05.631Z,262.08
2022-08-25T12:33:21.734Z,252.10
2022-08-25T12:36:25.400Z,252.85
2022-08-25T12:39:24.368Z,267.60
2022-08-25T12:42:32.810Z,268.33
2022-08-25T12:45:20.347Z,272.40
2022-08-25T12:48:28.936Z,276.83
2022-08-25T12:51:20.928Z,262.30
2022-08-25T12:54:43.569Z,258.65
2022-08-25T12:57:45.019Z,255.90
2022-08-25T13:00:45.893Z,263.17
2022-08-25T13:03:54.681Z,270.70
2022-08-25T13:06:42.151Z,276.48
2022-08-25T13:09:38.207Z,272.00
2022-08-25T13:12:34.888Z,274.38
2022-08-25T13:15:38.615Z,275.38
2022-08-25T13:18:27.689Z,272.25
2022-08-25T13:21:28.366Z,270.30
2022-08-25T13:24:27.387Z,275.17
2022-08-25T13:27:27.061Z,282.75
2022-08-25T13:30:35.533Z,272.83
2022-08-25T13:33:26.879Z,269.38
2022-08-25T13:36:35.420Z,271.88
2022-08-25T13:39:45.159Z,271.83
2022-08-25T13:42:32.883Z,271.13
2022-08-25T13:45:31.853Z,270.23
2022-08-25T13:48:37.270Z,271.40
2022-08-25T13:51:31.469Z,272.00
2022-08-25T13:54:29.816Z,273.50
2022-08-25T13:57:25.647Z,285.17
2022-08-25T14:00:47.363Z,278.25
2022-08-25T14:03:39.240Z,278.00
2022-08-25T14:06:32.933Z,269.92
2022-08-25T14:09:28.213Z,264.33
2022-08-25T14:12:41.579Z,265.35
2022-08-25T14:15:32.116Z,267.52
2022-08-25T14:18:30.164Z,266.65
2022-08-25T14:21:26.483Z,269.02
2022-08-25T14:24:18.966Z,262.13
2022-08-25T14:27:09.712Z,254.73
2022-08-25T14:29:59.171Z,255.45
2022-08-25T14:32:46.076Z,235.93
2022-08-25T14:35:38.332Z,244.35
2022-08-25T14:38:26.489Z,262.33
2022-08-25T14:41:14.040Z,264.70
2022-08-25T14:44:07.916Z,263.30
2022-08-25T14:46:56.768Z,264.98
2022-08-25T14:49:45.885Z,258.02
2022-08-25T14:52:33.330Z,252.40
2022-08-25T14:55:31.339Z,248.18
2022-08-25T14:58:25.973Z,248.88
2022-08-25T15:01:16.926Z,258.08
2022-08-25T15:04:20.424Z,263.35
2022-08-25T15:07:27.524Z,256.52
2022-08-25T15:10:14.877Z,260.23
2022-08-25T15:13:01.927Z,257.40
2022-08-25T15:15:52.772Z,255.88
2022-08-25T15:18:45.603Z,263.00
2022-08-25T15:21:34.656Z,266.05
2022-08-25T15:24:25.118Z,265.95
2022-08-25T15:27:15.165Z,259.70
2022-08-25T15:30:02.808Z,257.67
2022-08-25T15:32:50.433Z,256.17
2022-08-25T15:35:37.806Z,251.00
2022-08-25T15:38:24.838Z,252.40
2022-08-25T15:41:13.566Z,251.88
2022-08-25T15:44:00.646Z,250.13
2022-08-25T15:46:49.887Z,248.65
2022-08-25T15:49:37.748Z,245.55
2022-08-25T15:52:28.356Z,244.23
2022-08-25T15:55:27.520Z,245.73
2022-08-25T15:58:16.393Z,237.98
2022-08-25T16:01:03.927Z,233.85
2022-08-25T16:03:51.339Z,236.98
2022-08-25T16:06:39.172Z,225.82
2022-08-25T16:09:26.159Z,226.38
2022-08-25T16:12:13.764Z,223.45
2022-08-25T16:15:00.723Z,224.73
2022-08-25T16:17:51.161Z,221.48
2022-08-25T16:20:44.382Z,222.45
2022-08-25T16:23:31.344Z,219.68
2022-08-25T16:26:20.980Z,215.88
2022-08-25T16:29:09.591Z,221.38
2022-08-25T16:31:57.504Z,216.65
2022-08-25T16:34:44.664Z,213.48
2022-08-25T16:37:33.184Z,216.27
2022-08-25T16:40:23.541Z,209.40
2022-08-25T16:43:10.744Z,207.52
2022-08-25T16:46:02.944Z,217.10
2022-08-25T16:48:50.530Z,208.38
2022-08-25T16:51:38.953Z,211.02
2022-08-25T16:54:45.735Z,212.82
2022-08-25T16:57:32.643Z,213.13
2022-08-25T17:00:26.863Z,216.77
2022-08-25T17:06:01.091Z,210.55
2022-08-25T17:08:50.818Z,212.25
2022-08-25T17:11:46.517Z,213.63
2022-08-25T17:14:33.591Z,211.48
2022-08-25T17:17:20.859Z,211.82
2022-08-25T17:20:08.198Z,209.05
2022-08-25T17:22:55.124Z,208.52
2022-08-25T17:25:43.055Z,208.18
2022-08-25T17:28:30.385Z,206.48
2022-08-25T17:31:18.227Z,206.02
2022-08-25T17:34:07.402Z,204.50
2022-08-25T17:36:54.766Z,204.95
2022-08-25T17:39:41.749Z,202.93
2022-08-25T17:42:30.292Z,200.52
2022-08-25T17:45:17.587Z,203.80
2022-08-25T17:48:04.914Z,204.85
2022-08-25T17:50:52.664Z,203.07
2022-08-25T17:53:39.754Z,202.45
2022-08-25T17:56:27.855Z,207.07
2022-08-25T17:59:16.492Z,203.52
2022-08-25T18:02:04.884Z,196.98
2022-08-25T18:04:52.405Z,198.35
2022-08-25T18:07:39.948Z,195.77
2022-08-25T18:10:31.289Z,192.77
2022-08-25T18:13:19.177Z,190.55
2022-08-25T18:16:08.842Z,186.80
2022-08-25T18:18:56.684Z,185.00
2022-08-25T18:21:44.388Z,183.20
2022-08-25T18:24:31.387Z,182.60
2022-08-25T18:27:18.506Z,177.05
2022-08-25T18:30:09.628Z,178.27
2022-08-25T18:32:58.810Z,178.65
2022-08-25T18:35:46.427Z,173.18
2022-08-25T18:38:58.198Z,174.48
2022-08-25T18:41:46.360Z,177.32
2022-08-25T18:44:33.413Z,175.50
2022-08-25T18:47:21.725Z,173.65
2022-08-25T18:50:10.756Z,174.27
2022-08-25T18:52:58.158Z,176.25
2022-08-25T18:55:47.135Z,169.60
2022-08-25T18:58:34.535Z,171.75
2022-08-25T19:01:23.722Z,165.88
2022-08-25T19:04:10.765Z,164.45
2022-08-25T19:06:57.715Z,163.90
2022-08-25T19:09:44.665Z,156.73
2022-08-25T19:12:31.578Z,153.88
2022-08-25T19:15:24.875Z,152.52
2022-08-25T19:18:13.068Z,152.18
2022-08-25T19:21:00.151Z,155.20
2022-08-25T19:23:47.060Z,149.77
2022-08-25T19:26:36.308Z,152.90
2022-08-25T19:29:24.186Z,160.00
2022-08-25T19:32:12.693Z,158.45
2022-08-25T19:34:59.763Z,158.60
2022-08-25T19:37:47.586Z,155.38
2022-08-25T19:40:35.580Z,158.48
2022-08-25T19:43:22.896Z,158.23
2022-08-25T19:46:10.781Z,160.52
2022-08-25T19:48:57.835Z,158.05
2022-08-25T19:51:52.129Z,154.70
2022-08-25T19:54:44.357Z,157.60
2022-08-25T19:57:42.301Z,162.38
2022-08-25T20:00:34.212Z,156.43
2022-08-25T20:03:24.197Z,157.25
2022-08-25T20:06:11.152Z,156.60
2022-08-25T20:09:00.420Z,151.43
2022-08-25T20:11:47.856Z,152.32
2022-08-25T20:14:36.712Z,150.88
2022-08-25T20:17:26.368Z,151.23
2022-08-25T20:20:18.956Z,151.88
2022-08-25T20:23:24.929Z,150.90
2022-08-25T20:26:12.596Z,148.77
2022-08-25T20:28:59.833Z,147.52
2022-08-25T20:31:47.725Z,148.43
2022-08-25T20:34:35.518Z,149.25
2022-08-25T20:37:22.952Z,149.00
2022-08-25T20:40:13.119Z,147.38
2022-08-25T20:43:04.754Z,147.82
2022-08-25T20:46:04.601Z,147.68
2022-08-25T20:48:52.444Z,150.30
2022-08-25T20:51:40.627Z,152.75
2022-08-25T20:54:29.525Z,149.70
2022-08-25T20:57:25.742Z,149.10
2022-08-25T21:00:14.463Z,146.68
2022-08-25T21:03:02.668Z,148.40
2022-08-25T21:05:54.016Z,150.80
2022-08-25T21:08:47.525Z,147.48
2022-08-25T21:11:36.375Z,150.40
2022-08-25T21:14:25.373Z,149.70
2022-08-25T21:17:15.576Z,149.32
2022-08-25T21:20:08.668Z,147.43
2022-08-25T21:23:04.768Z,148.32
2022-08-25T21:25:53.721Z,145.40
2022-08-25T21:28:40.930Z,145.65
2022-08-25T21:31:36.058Z,145.52
2022-08-25T21:34:23.311Z,144.63
2022-08-25T21:37:11.331Z,145.35
2022-08-25T21:39:58.591Z,147.32
2022-08-25T21:42:46.772Z,143.82
2022-08-25T21:45:46.487Z,143.70
2022-08-25T21:48:34.468Z,143.70
2022-08-25T21:51:33.499Z,145.52
2022-08-25T21:54:20.627Z,144.00
2022-08-25T21:57:11.699Z,142.35
2022-08-25T21:59:59.104Z,142.57
2022-08-25T22:02:46.326Z,144.30
2022-08-25T22:05:37.554Z,146.55
2022-08-25T22:08:30.546Z,143.25
2022-08-25T22:11:18.612Z,143.38
2022-08-25T22:14:07.111Z,142.70
2022-08-25T22:16:55.535Z,144.68
2022-08-25T22:19:42.639Z,142.77
2022-08-25T22:22:29.609Z,142.07
2022-08-25T22:25:16.609Z,140.90
2022-08-25T22:28:04.735Z,140.88
2022-08-25T22:30:52.092Z,140.52
2022-08-25T22:33:40.411Z,142.05
2022-08-25T22:36:31.347Z,140.75
2022-08-25T22:39:18.300Z,143.48
2022-08-25T22:42:07.907Z,142.43
2022-08-25T22:44:55.139Z,144.40
2022-08-25T22:47:42.265Z,140.43
2022-08-25T22:50:29.608Z,139.82
2022-08-25T22:53:16.532Z,142.70
2022-08-25T22:56:04.605Z,138.95
2022-08-25T22:58:53.259Z,138.40
2022-08-25T23:01:42.861Z,140.63
2022-08-25T23:04:30.199Z,140.63
2022-08-25T23:07:17.833Z,140.88
2022-08-25T23:10:07.952Z,140.48
2022-08-25T23:12:55.225Z,137.38
2022-08-25T23:15:47.018Z,137.32
2022-08-25T23:18:34.096Z,134.75
2022-08-25T23:21:41.011Z,137.00
2022-08-25T23:24:30.364Z,134.88
2022-08-25T23:27:20.062Z,135.10
2022-08-25T23:30:07.822Z,138.65
2022-08-25T23:32:55.997Z,139.45
2022-08-25T23:35:43.362Z,140.65
2022-08-25T23:38:30.416Z,139.68
2022-08-25T23:41:21.263Z,138.90
2022-08-25T23:44:11.670Z,138.02
2022-08-25T23:46:58.884Z,138.45
2022-08-25T23:49:46.014Z,140.70
2022-08-25T23:52:33.460Z,136.05
2022-08-25T23:55:20.521Z,137.32
2022-08-25T23:58:07.770Z,136.35
